Create Custom Reports and Graphics: Custom Report

Northern Napa County

Map

15 Minute Data

Latest Observations

Map

15 Minute Data

Napa County - Northeast

8 Stations

15 Minute Data
as of 1/27/22 2:43 PM PST
Station Date Time Temp (°F) RH (%) Dew Pt (°F) Wind Spd (mph) Wind Dir (°) Wind Gust (mph) Latest Rain (In) Daily Rain (In) Daily Min Temp (°F) Daily Max Temp (°F)
Pope Valley (Weeks Lake) 1/27/22 1430 67.0   5.4 24   17 29.2   8.8 2.6   1.7 SE | 127 6.4   2.9 0.00 0.00 24.3   0.2 67.7   5.6
Dollarhide Base 1/27/22 1430 65.2   4.7 29   20 32.0   9.1 7.6   0.7 E | 97 12.0   1.0 0.00 0.00 28.2   3.0 68.0   6.4
Dollarhide 1AS Remote 1/27/22 1430 66.6   3.7 28   19 32.2   10.2 5.0   0.2 E | 80 8.2   0.0 - - 24.7   0.3 67.6   4.1
Dollarhide 17B Remote 8/10/21 0330 57.9   1.2 79   7 51.3   3.6 - - - - - 57.6   1.3 64.6   0.9
Dollarhide 18A Remote 1/27/22 1430 67.5   5.5 28   19 32.9   8.7 - - - - - 23.0 68.4
Angwin 1/27/22 1430 59.0   4.1 28   21 25.8   10.3 4.4   1.3 N | 10 8.5   1.9 0.00 0.00 45.6   3.0 59.5   3.7
Lower Chiles Valley (Brown) 1/27/22 1430 66.2   5.1 20   23 23.5   14.8 4.4   0.2 ENE | 68 7.7   0.6 0.00 0.00 26.9   2.3 67.0   5.2
Moss Creek Vineyard/Reservior 1/27/22 1345 62.8   5.3 24   27 25.9   13.8 - - - 0.00 0.00 28.7   5.3 63.8   5.2
Max     67.5 29 32.9 7.6 - 12.0 0.00 0.00 45.6 68.4
Avg     64.9 26 28.8 4.8 - 8.5 0.00 - - -
Min     59.0 20 23.5 2.6 - 6.4 0.00 0.00 23.0 59.5

Northern & Central Napa County

17 Stations

15 Minute Data | America/Los_Angeles
as of 1/27/22 2:43 PM PST
Station Date Time Temp (°F) RH (%) Dew Pt (°F) Wind Spd (mph) Wind Dir (°) Wind Gust (mph) Latest Rain (In) Daily Rain (In) Daily Min Temp (°F) Daily Max Temp (°F)
Calistoga-North 1/27/22 1430 68.6   5.6 23   18 29.1   9.7 - - - 0.00 0.00 30.5   0.7 70.2   5.5
St. Helena-North 1/27/22 1430 70.6   5.9 20   20 27.8   11.9 2.2   1.5 E | 87 5.7   2.6 0.00 0.00 31.2   0.2 71.2   5.3
Rutherford Hill Estate 1/27/22 1430 70.1   6.2 18   23 24.0   15.2 2.8   1.7 NE | 38 9.4   0.0 0.00 0.00 42.0   2.7 71.2   4.8
Rutherford-North (Mee Ln) 1/27/22 1430 69.9   5.2 22   20 29.7   11.5 3.6   0.7 NE | 37 7.9   1.8 0.00 0.00 31.7   3.5 70.3   4.8
Rutherford (STS) 1/27/22 1430 70.1   3.0 27   15 34.2   8.8 3.8   2.6 NNE | 29 6.8   2.5 0.00 0.00 32.2   4.2 71.2   2.8
Oakville-NE (Ranch 88) 1/27/22 1430 69.5   4.2 19   19 25.6   13.7 3.9   1.5 NNE | 30 8.9   4.6 0.00 0.00 28.1   0.6 70.1   3.8
To Kalon 1/27/22 1415 71.2   5.2 20   21 27.4   13.6 3.1   1.6 N | 7 7.5   3.1 0.00 0.00 31.6   2.8 72.1   4.8
Yountville (Ranch 67) 1/27/22 1430 68.5   4.0 19   22 24.4   15.6 4.7   3.2 N | 1 8.2   4.6 0.00 0.00 29.4   0.7 69.2   3.9
Stags Leap Dist (Silverado Vineyards) 1/27/22 1430 71.1   5.6 19   21 26.6   14.2 3.0   0.9 NNW | 338 7.8   2.4 0.00 0.00 32.6   2.5 72.0   5.7
Borreo (Soda Canyon) 1/27/22 1430 69.1   4.8 24   17 30.7   9.5 1.2   0.6 SSE | 158 4.4   0.0 0.00 0.00 35.4   1.1 69.4   4.5
Wappo Hill 1/27/22 1415 71.8   5.3 20   19 28.9   11.8 0.9   0.7 WSW | 251 3.0   1.1 0.00 0.00 30.0   1.2 72.3   5.4
Stags Leap Dist (Chimney Rock) 1/27/22 1430 71.8   6.0 22   18 31.1   9.8 0.9   0.7 SW | 227 3.9   0.4 0.00 0.00 30.1   0.2 72.6   5.4
Yountville-South (Ranch 87) 1/27/22 1430 70.0   3.7 26   14 33.6   7.6 2.6   1.0 SSE | 154 4.4   1.1 0.00 0.00 30.4   0.6 71.4   4.1
Yountville-SE (Ranch 85) 1/27/22 1430 70.1   4.6 25   17 32.9   9.0 2.5   0.8 SW | 229 5.3   0.4 0.00 0.00 30.6   0.5 71.0   5.0
Oak Knoll-East (Ranch 53) 1/27/22 1430 70.8   5.8 22   17 30.5   9.1 1.4   1.3 W | 266 3.0   3.9 0.00 0.00 30.0   0.2 72.0   5.8
Napa-NW (Ranch 54) 1/27/22 1430 68.4   4.2 23   17 28.7   10.6 1.6   1.0 ENE | 77 4.5   1.0 0.00 0.00 31.8   2.4 68.8   4.0
Napa-North (Ranch 29) 1/27/22 1430 68.2   3.5 30   13 35.6   5.8 2.6   1.2 S | 183 5.4   5.6 0.00 0.00 29.4   1.3 69.2   3.2
Max     71.8 30 35.6 4.7 - 9.4 0.00 0.00 42.0 72.6
Avg     70.0 22 29.5 2.6 - 6.0 0.00 - - -
Min     68.2 18 24.0 0.9 - 3.0 0.00 0.00 28.1 68.8

Southern Napa County

19 Stations

15 Minute Data | America/Los_Angeles
as of 1/27/22 2:43 PM PST
Station Date Time Temp (°F) RH (%) Dew Pt (°F) Wind Spd (mph) Wind Dir (°) Wind Gust (mph) Latest Rain (In) Daily Rain (In) Daily Min Temp (°F) Daily Max Temp (°F)
Mt. Veeder 1/27/22 1430 59.2   3.0 29   22 26.8   11.4 2.2   1.0 N | 356 5.9   2.3 0.00 0.00 48.8   2.8 62.7   4.2
Mount George (Napa East) 1/27/22 1430 67.4   3.2 30   9 35.2   4.0 2.2   2.3 S | 170 4.6   4.5 0.00 0.00 30.8   0.5 68.4   3.7
Napa-East (Palmaz 300') 1/27/22 1430 69.1   3.8 30   8 36.1   2.6 1.7   1.1 SW | 226 5.3   1.7 0.00 0.00 33.2   2.5 70.2   3.5
Napa-East (Palmaz 1200') 1/27/22 1430 65.7   5.3 23   22 26.9   12.3 2.3   2.4 SW | 229 5.5   2.9 - - 36.8   1.2 66.6   5.8
Napa-East (Palmaz 1400') 1/27/22 1430 62.9   4.4 27   23 28.0   11.5 4.2   0.2 N | 358 7.9   1.1 0.00 0.00 36.3   1.1 63.5   4.4
Wooden Valley 1/27/22 1430 64.6   2.9 36   9 37.3   3.0 3.8   0.6 SSE | 155 8.4   0.6 0.00 0.00 26.8   1.1 67.5   5.4
Napa-West Upper (Truchard) 1/27/22 1430 66.2   0.6 45   0 44.2   0.5 4.8   2.6 S | 184 8.2   3.4 0.00 0.00 38.7   5.2 66.5   0.4
Napa-West Lower (Truchard) 1/27/22 1430 67.0   1.2 42   2 42.8   0.0 - - - - - 29.3   0.1 67.3   0.4
Napa-South (Toyon Farms) 1/27/22 1430 68.5   0.8 43   0 45.0   1.0 4.8   2.5 S | 171 7.1   3.0 0.00 0.00 34.2   3.0 73.0   4.4
Toyon Remote 1 1/27/22 1430 65.7   0.1 - - - - - - - 30.1   0.9 66.2   0.4
Toyon Remote 2 1/27/22 1430 64.8   0.0 - - - - - - - 30.3   1.1 65.6   0.0
Toyon Remote 3 1/27/22 1430 66.5   0.3 - - - - - - - 29.6   1.0 67.2   0.7
Carneros (Saintsbury) 1/27/22 1430 65.9   1.0 43   0 42.9   0.6 3.9   1.2 SE | 133 6.7   1.4 0.00 0.00 34.0   1.9 66.8   0.9
Suscol Lower (Ranch 35) 1/27/22 1430 64.5   0.9 45   0 42.9   1.0 6.0   0.5 SSE | 165 10.5   2.2 0.00 0.00 33.2   2.6 65.7   1.5
Suscol Mtn (Ranch 93) 1/27/22 1430 64.2   4.3 44   5 42.0   1.0 2.6   7.3 WNW | 298 6.0   9.9 0.00 0.00 50.1   4.7 65.3   4.8
Suscol Upper (Ranch 90) 1/27/22 1430 63.4   1.4 47   2 43.0   0.2 5.4   1.2 SSW | 211 10.4   0.0 0.00 0.00 47.9   6.1 65.0   1.5
Stanly (Ranch 45) 1/27/22 1430 63.5   0.7 43   4 40.9   1.8 5.1   4.0 SSE | 149 6.9   6.4 0.00 0.00 32.8   0.5 66.8   3.5
Carneros Upper (Ranch 81) 1/27/22 1430 66.3   1.1 39   4 40.4   1.5 5.1   1.7 SE | 142 9.0   1.2 - - 40.4   4.6 67.8   2.0
Carneros Lower (Ranch 81) 1/27/22 1430 64.7   0.5 45   3 42.7   1.1 4.5   0.5 S | 170 8.2   1.1 0.00 0.00 32.2   0.3 65.5   1.0
Max     69.1 47 45.0 6.0 - 10.5 0.00 0.00 50.1 73.0
Avg     65.3 38 38.6 3.9 - 7.4 0.00 - - -
Min     59.2 23 26.8 1.7 - 4.6 0.00 0.00 26.8 62.7

Latest Observations

Map

Hourly Data